Time;durP1;ratioP1;P1;durP2;ratioP2;P2;SDS_P1;SDS_P2;PMS_P1;PMS_P2;Temp;Humidity;BMP_temperature;BMP_pressure;BME280_temperature;BME280_humidity;BME280_pressure;Samples;Min_cycle;Max_cycle;Signal;HPM_P1;HPM_P2
2024/04/18 00:00:29;;;;;;;1.40;0.80;;;14.40;83.60;;;;;;5178640;27;19999;-83
2024/04/18 00:02:55;;;;;;;1.17;0.80;;;14.40;83.60;;;;;;5208150;27;20003;-84
2024/04/18 00:05:21;;;;;;;1.65;0.65;;;14.40;83.60;;;;;;5178868;27;20011;-84
2024/04/18 00:07:46;;;;;;;2.20;0.70;;;14.40;83.60;;;;;;5207259;27;20014;-84
2024/04/18 00:10:13;;;;;;;1.33;0.70;;;14.50;83.70;;;;;;5207564;27;20003;-83
2024/04/18 00:12:39;;;;;;;0.85;0.80;;;14.40;83.60;;;;;;5208364;27;20032;-84
2024/04/18 00:15:07;;;;;;;1.27;0.90;;;14.40;83.60;;;;;;5178646;27;20023;-84
2024/04/18 00:17:36;;;;;;;0.80;0.70;;;14.40;83.70;;;;;;5178877;27;20446;-84
2024/04/18 00:20:03;;;;;;;1.15;0.80;;;14.40;83.70;;;;;;5178520;27;20004;-84
2024/04/18 00:22:29;;;;;;;1.13;0.73;;;14.40;83.70;;;;;;5178753;27;20003;-84
2024/04/18 00:24:54;;;;;;;1.52;0.75;;;14.50;83.80;;;;;;5178523;27;20004;-85
2024/04/18 00:27:20;;;;;;;1.50;0.80;;;14.40;83.70;;;;;;5178343;27;20079;-85
2024/04/18 00:29:46;;;;;;;1.02;0.70;;;14.40;83.70;;;;;;5207544;27;20004;-83
2024/04/18 00:32:13;;;;;;;0.93;0.75;;;14.30;83.70;;;;;;5207496;27;20078;-83
2024/04/18 00:34:39;;;;;;;1.17;0.70;;;14.40;83.70;;;;;;5207676;27;20014;-84
2024/04/18 00:37:05;;;;;;;0.95;0.80;;;14.40;83.80;;;;;;5207264;27;20453;-85
2024/04/18 00:39:30;;;;;;;1.90;1.00;;;14.40;83.80;;;;;;5178417;27;20010;-83
2024/04/18 00:41:56;;;;;;;1.23;0.80;;;14.40;83.80;;;;;;5178374;27;20454;-84
2024/04/18 00:44:22;;;;;;;1.33;0.88;;;14.50;83.80;;;;;;5207336;27;20552;-84
2024/04/18 00:46:51;;;;;;;2.25;0.80;;;14.40;83.80;;;;;;5178303;27;20020;-85
2024/04/18 00:49:17;;;;;;;1.38;0.77;;;14.30;83.80;;;;;;5207277;27;20007;-85
2024/04/18 00:51:44;;;;;;;0.77;0.68;;;14.40;83.90;;;;;;5206830;27;20000;-83
2024/04/18 00:54:10;;;;;;;1.63;0.82;;;14.40;83.90;;;;;;5178034;27;20004;-83
2024/04/18 00:56:38;;;;;;;1.33;0.70;;;14.30;83.80;;;;;;5207501;27;20413;-85
2024/04/18 00:59:05;;;;;;;0.85;0.70;;;14.40;83.90;;;;;;5178014;27;20004;-84
2024/04/18 01:01:30;;;;;;;1.02;0.75;;;14.30;83.90;;;;;;5207069;27;20047;-84
2024/04/18 01:03:56;;;;;;;0.85;0.68;;;14.50;84.00;;;;;;5207163;27;20003;-83
2024/04/18 01:06:23;;;;;;;2.55;0.90;;;14.40;83.90;;;;;;5207028;27;20650;-83
2024/04/18 01:08:50;;;;;;;2.50;0.90;;;14.40;83.90;;;;;;5178216;27;20079;-84
2024/04/18 01:11:16;;;;;;;1.00;0.70;;;14.40;83.90;;;;;;5177507;27;20000;-84
2024/04/18 01:13:42;;;;;;;1.27;0.80;;;14.30;83.90;;;;;;5177688;27;20345;-84
2024/04/18 01:16:07;;;;;;;0.65;0.55;;;14.40;83.90;;;;;;5207060;27;20004;-84
2024/04/18 01:18:34;;;;;;;1.25;0.70;;;14.40;83.90;;;;;;5206856;27;20003;-83
2024/04/18 01:20:59;;;;;;;1.17;0.77;;;14.40;84.00;;;;;;5180894;27;20000;-85
2024/04/18 01:23:28;;;;;;;1.88;0.90;;;14.40;84.00;;;;;;5209937;27;20003;-83
2024/04/18 01:25:54;;;;;;;0.80;0.70;;;14.40;84.50;;;;;;5180932;27;20004;-85
2024/04/18 01:28:20;;;;;;;0.70;0.70;;;14.40;84.00;;;;;;5209940;27;20000;-82
2024/04/18 01:30:46;;;;;;;0.98;0.70;;;14.40;84.00;;;;;;5209723;27;20326;-84
2024/04/18 01:33:12;;;;;;;1.48;0.85;;;14.40;84.00;;;;;;5180839;27;20018;-83
2024/04/18 01:35:38;;;;;;;1.08;0.82;;;14.40;84.00;;;;;;5209902;27;19999;-85
2024/04/18 01:38:03;;;;;;;0.93;0.70;;;14.40;84.00;;;;;;5209719;27;20027;-83
2024/04/18 01:40:29;;;;;;;1.02;0.73;;;14.40;84.10;;;;;;5209161;27;20020;-84
2024/04/18 01:42:55;;;;;;;1.00;0.63;;;14.30;84.00;;;;;;5180680;27;20014;-85
2024/04/18 01:45:20;;;;;;;0.90;0.70;;;14.40;84.10;;;;;;5209876;27;20011;-84
2024/04/18 01:47:46;;;;;;;1.45;0.90;;;14.40;84.10;;;;;;5180595;27;20011;-83
2024/04/18 01:50:12;;;;;;;0.73;0.63;;;14.30;84.00;;;;;;5209665;27;20003;-84
2024/04/18 01:52:38;;;;;;;1.50;0.80;;;14.40;84.10;;;;;;5180568;27;20004;-84
2024/04/18 01:55:06;;;;;;;0.70;0.70;;;14.40;84.20;;;;;;5180595;27;20010;-84
2024/04/18 01:57:32;;;;;;;1.17;0.68;;;14.40;84.10;;;;;;5209976;27;20000;-84
2024/04/18 01:59:57;;;;;;;1.05;0.70;;;14.40;84.10;;;;;;5209312;27;20003;-85
2024/04/18 02:02:24;;;;;;;1.27;0.75;;;14.30;84.10;;;;;;5180596;27;20003;-84
2024/04/18 02:04:50;;;;;;;1.00;0.80;;;14.40;84.20;;;;;;5180318;27;20449;-83
2024/04/18 02:07:16;;;;;;;1.33;0.77;;;14.40;84.20;;;;;;5180606;27;20089;-84
2024/04/18 02:09:41;;;;;;;1.17;0.85;;;14.40;84.20;;;;;;5209136;27;20011;-84
2024/04/18 02:12:07;;;;;;;0.98;0.80;;;14.40;84.20;;;;;;5180706;27;20014;-84
2024/04/18 02:14:32;;;;;;;1.20;0.80;;;14.40;84.20;;;;;;5209184;27;20015;-84
2024/04/18 02:16:58;;;;;;;1.20;0.80;;;14.30;84.20;;;;;;5180598;27;20000;-82
2024/04/18 02:19:25;;;;;;;1.55;0.80;;;14.40;84.20;;;;;;5209343;27;20007;-84
2024/04/18 02:21:50;;;;;;;1.38;0.70;;;14.40;84.20;;;;;;5180354;27;20011;-84
2024/04/18 02:24:16;;;;;;;1.83;0.80;;;14.30;84.20;;;;;;5209231;27;20007;-85
2024/04/18 02:26:42;;;;;;;0.82;0.63;;;14.40;84.20;;;;;;5180090;27;20004;-85
2024/04/18 02:29:08;;;;;;;0.85;0.70;;;14.30;84.20;;;;;;5208898;27;20032;-84
2024/04/18 02:31:34;;;;;;;1.02;0.73;;;14.20;84.10;;;;;;5208042;27;20007;-84
2024/04/18 02:33:59;;;;;;;1.00;0.70;;;14.40;84.30;;;;;;5179940;27;20011;-83
2024/04/18 02:36:25;;;;;;;1.23;0.70;;;14.30;84.30;;;;;;5208956;27;20827;-84
2024/04/18 02:38:51;;;;;;;1.23;0.70;;;14.30;84.20;;;;;;5209199;27;20008;-83
2024/04/18 02:41:16;;;;;;;1.10;0.82;;;14.30;84.20;;;;;;5208618;27;20015;-84
2024/04/18 02:43:42;;;;;;;1.05;0.80;;;14.30;84.20;;;;;;5166654;27;20016;-85
2024/04/18 02:46:07;;;;;;;1.45;0.90;;;14.40;84.30;;;;;;5179833;27;20342;-83
2024/04/18 02:48:33;;;;;;;1.08;0.80;;;14.40;84.40;;;;;;5209070;27;19999;-85
2024/04/18 02:50:59;;;;;;;1.08;0.70;;;14.30;84.30;;;;;;5179645;27;20000;-84
2024/04/18 02:53:24;;;;;;;1.42;0.90;;;14.40;84.30;;;;;;5208753;27;20350;-83
2024/04/18 02:55:50;;;;;;;1.20;0.90;;;14.40;84.30;;;;;;5208804;27;20008;-85
2024/04/18 02:58:15;;;;;;;1.15;0.73;;;14.20;84.20;;;;;;5208661;27;20477;-85
2024/04/18 03:00:41;;;;;;;0.70;0.60;;;14.40;84.30;;;;;;5208357;27;20000;-83
2024/04/18 03:03:07;;;;;;;0.93;0.70;;;14.40;84.40;;;;;;5208952;27;20003;-83
2024/04/18 03:05:32;;;;;;;1.55;0.90;;;14.30;84.30;;;;;;5208686;27;20019;-84
2024/04/18 03:07:58;;;;;;;0.80;0.70;;;14.40;84.40;;;;;;5208681;27;20075;-84
2024/04/18 03:10:24;;;;;;;1.13;0.70;;;14.40;84.30;;;;;;5179435;27;19999;-85
2024/04/18 03:12:54;;;;;;;2.45;0.90;;;14.40;84.30;;;;;;5208791;27;20040;-83
2024/04/18 03:15:20;;;;;;;1.20;0.80;;;14.20;84.40;;;;;;5179348;27;20011;-84
2024/04/18 03:17:49;;;;;;;1.00;0.77;;;14.30;84.30;;;;;;5179401;27;20397;-85
2024/04/18 03:20:15;;;;;;;1.42;1.00;;;14.20;84.30;;;;;;5208082;27;20377;-84
2024/04/18 03:22:41;;;;;;;1.60;0.80;;;14.30;84.40;;;;;;5179783;27;20007;-85
2024/04/18 03:25:06;;;;;;;1.30;0.80;;;14.30;84.40;;;;;;5179247;27;20353;-85
2024/04/18 03:27:33;;;;;;;1.30;0.80;;;14.30;84.40;;;;;;5179389;27;20076;-84
2024/04/18 03:29:58;;;;;;;1.10;0.80;;;14.30;84.40;;;;;;5208503;27;20004;-84
2024/04/18 03:32:25;;;;;;;1.08;0.90;;;14.30;84.40;;;;;;5179349;27;20036;-84
2024/04/18 03:34:51;;;;;;;1.20;0.90;;;14.40;84.40;;;;;;5179227;27;20023;-84
2024/04/18 03:37:16;;;;;;;1.45;1.00;;;14.30;84.40;;;;;;5208188;27;20075;-84
2024/04/18 03:39:42;;;;;;;2.25;0.90;;;14.30;84.40;;;;;;5208585;27;20014;-84
2024/04/18 03:42:07;;;;;;;1.17;0.77;;;14.30;84.40;;;;;;5207268;27;20453;-83
2024/04/18 03:44:33;;;;;;;1.42;0.95;;;14.30;84.50;;;;;;5207903;27;20070;-85
2024/04/18 03:46:58;;;;;;;1.70;0.70;;;14.30;84.40;;;;;;5208173;27;20494;-85
2024/04/18 03:49:24;;;;;;;1.83;1.00;;;14.30;84.40;;;;;;5178759;27;20014;-83
2024/04/18 03:51:50;;;;;;;0.70;0.60;;;14.30;84.40;;;;;;5179424;27;20014;-85
2024/04/18 03:54:15;;;;;;;1.63;0.90;;;14.30;84.50;;;;;;5207936;27;20340;-84
2024/04/18 03:56:41;;;;;;;1.15;0.80;;;14.30;84.50;;;;;;5208192;27;20055;-84
2024/04/18 03:59:06;;;;;;;1.52;0.93;;;14.30;84.40;;;;;;5178631;27;20377;-85
2024/04/18 04:01:32;;;;;;;1.75;0.90;;;14.30;84.40;;;;;;5178788;27;20036;-85
2024/04/18 04:03:58;;;;;;;0.82;0.80;;;14.30;84.50;;;;;;5208140;27;20010;-85
2024/04/18 04:06:23;;;;;;;1.25;0.90;;;14.30;84.40;;;;;;5178808;27;20019;-84
2024/04/18 04:08:49;;;;;;;1.27;0.80;;;14.30;84.50;;;;;;5151625;27;20015;-84
2024/04/18 04:11:16;;;;;;;1.08;0.73;;;14.20;84.50;;;;;;5207545;27;20003;-85
2024/04/18 04:13:41;;;;;;;1.73;0.93;;;14.30;84.50;;;;;;5207830;27;20017;-85
2024/04/18 04:16:07;;;;;;;1.73;0.82;;;14.30;84.50;;;;;;5179270;27;20003;-84
2024/04/18 04:18:33;;;;;;;1.50;0.90;;;14.20;84.50;;;;;;5207881;27;20003;-85
2024/04/18 04:20:59;;;;;;;1.75;0.90;;;14.30;84.50;;;;;;5207330;27;20342;-85
2024/04/18 04:23:24;;;;;;;1.42;0.90;;;14.30;84.50;;;;;;5151342;27;20007;-84
2024/04/18 04:25:50;;;;;;;1.50;0.80;;;14.30;84.60;;;;;;5207713;27;20075;-84
2024/04/18 04:28:15;;;;;;;1.83;0.90;;;14.20;84.50;;;;;;5179004;27;20015;-84
2024/04/18 04:30:41;;;;;;;2.05;0.90;;;14.30;84.60;;;;;;5178399;27;20326;-85
2024/04/18 04:33:06;;;;;;;2.38;0.82;;;14.30;84.50;;;;;;5178502;27;20008;-85
2024/04/18 04:35:32;;;;;;;1.75;1.00;;;14.30;84.50;;;;;;5178714;27;20015;-85
2024/04/18 04:37:58;;;;;;;1.23;0.85;;;14.30;84.50;;;;;;5207449;27;20032;-85
2024/04/18 04:40:24;;;;;;;1.33;0.82;;;14.30;84.60;;;;;;5207100;27;20015;-83
2024/04/18 04:42:49;;;;;;;1.08;0.82;;;14.30;84.50;;;;;;5207188;27;20004;-84
2024/04/18 04:45:15;;;;;;;2.15;0.90;;;14.20;84.50;;;;;;5207474;27;20345;-84
2024/04/18 04:47:40;;;;;;;2.03;1.10;;;14.30;84.60;;;;;;5207445;27;20111;-84
2024/04/18 04:50:06;;;;;;;1.98;0.95;;;14.30;85.10;;;;;;5206788;27;20461;-83
2024/04/18 04:52:32;;;;;;;1.30;0.82;;;14.30;84.60;;;;;;5178242;27;19999;-85
2024/04/18 04:54:57;;;;;;;1.80;1.00;;;14.20;84.50;;;;;;5180076;27;20015;-84
2024/04/18 04:57:23;;;;;;;1.23;0.80;;;14.30;84.60;;;;;;5210161;27;19999;-84
2024/04/18 04:59:48;;;;;;;2.08;0.90;;;14.30;84.60;;;;;;5181284;27;20444;-85
2024/04/18 05:02:14;;;;;;;1.58;0.98;;;14.30;85.10;;;;;;5181983;27;20492;-84
2024/04/18 05:04:40;;;;;;;1.23;0.82;;;14.30;84.60;;;;;;5210387;27;20010;-85
2024/04/18 05:07:06;;;;;;;1.50;0.98;;;14.30;84.60;;;;;;5154016;27;20094;-85
2024/04/18 05:09:31;;;;;;;1.77;1.10;;;14.20;84.60;;;;;;5180753;27;20033;-83
2024/04/18 05:11:57;;;;;;;1.10;0.82;;;14.30;84.60;;;;;;5181210;27;20007;-85
2024/04/18 05:14:23;;;;;;;1.75;0.95;;;14.30;84.60;;;;;;5181282;27;20070;-84
2024/04/18 05:16:49;;;;;;;1.77;0.93;;;14.30;84.60;;;;;;5181184;27;20015;-83
2024/04/18 05:19:15;;;;;;;1.52;1.00;;;14.30;84.60;;;;;;5180855;27;20100;-84
2024/04/18 05:21:41;;;;;;;1.80;1.08;;;14.20;84.50;;;;;;5209918;27;20543;-83
2024/04/18 05:24:09;;;;;;;1.85;1.00;;;14.30;84.50;;;;;;5177270;27;20497;-84
2024/04/18 05:26:35;;;;;;;1.98;1.10;;;14.30;84.50;;;;;;5150636;27;20015;-86
2024/04/18 05:31:47;;;;;;;1.02;0.88;;;14.30;84.50;;;;;;5169996;27;20492;-85
2024/04/18 05:34:12;;;;;;;2.13;1.00;;;14.30;84.50;;;;;;5180265;27;20031;-85
2024/04/18 05:36:38;;;;;;;1.60;1.00;;;14.30;84.50;;;;;;5179362;27;20384;-85
2024/04/18 05:39:04;;;;;;;2.40;1.23;;;14.30;84.50;;;;;;5179705;27;20022;-84
2024/04/18 05:41:30;;;;;;;1.15;0.90;;;14.30;84.50;;;;;;5179610;27;20018;-85
2024/04/18 05:43:56;;;;;;;0.90;0.80;;;14.20;84.50;;;;;;5180584;27;20015;-85
2024/04/18 05:46:22;;;;;;;1.60;0.88;;;14.30;84.50;;;;;;5180528;27;20003;-85
2024/04/18 05:48:47;;;;;;;1.45;0.95;;;14.30;84.50;;;;;;5179215;27;20004;-86
2024/04/18 05:51:14;;;;;;;1.40;0.90;;;14.30;84.50;;;;;;5208222;27;20082;-84
2024/04/18 05:53:40;;;;;;;1.20;0.80;;;14.20;84.50;;;;;;5178932;27;20499;-86
2024/04/18 05:56:05;;;;;;;2.97;1.15;;;14.30;84.50;;;;;;5179225;27;20003;-84
2024/04/18 05:58:32;;;;;;;1.35;0.95;;;14.30;84.50;;;;;;5207712;27;20028;-84
2024/04/18 06:00:58;;;;;;;1.27;0.98;;;14.30;84.50;;;;;;5177924;27;20691;-86
2024/04/18 06:03:25;;;;;;;1.10;0.80;;;14.40;84.50;;;;;;5178682;27;20016;-84
2024/04/18 06:05:52;;;;;;;2.35;1.00;;;14.30;84.40;;;;;;5177389;27;20009;-84
2024/04/18 06:08:18;;;;;;;2.70;1.10;;;14.40;85.10;;;;;;5178677;27;20357;-85
2024/04/18 06:10:45;;;;;;;2.47;0.90;;;14.40;84.40;;;;;;5206836;27;19996;-84
2024/04/18 06:13:11;;;;;;;1.95;1.00;;;14.40;84.30;;;;;;5207930;27;20460;-84
2024/04/18 06:15:43;;;;;;;0.90;0.80;;;14.40;84.20;;;;;;5178211;27;20003;-84
2024/04/18 06:18:09;;;;;;;1.30;0.80;;;14.40;84.30;;;;;;5180200;27;20095;-85
2024/04/18 06:20:46;;;;;;;1.45;1.10;;;14.40;84.30;;;;;;5206766;27;19999;-83
2024/04/18 06:23:12;;;;;;;1.13;0.90;;;14.40;84.30;;;;;;5178739;27;19999;-84
2024/04/18 06:25:38;;;;;;;1.27;0.90;;;14.40;84.30;;;;;;5207310;27;20345;-84
2024/04/18 06:28:11;;;;;;;1.83;0.90;;;14.40;84.30;;;;;;5179379;27;20024;-84
2024/04/18 06:30:38;;;;;;;2.22;1.17;;;14.40;84.30;;;;;;5208077;27;20057;-83
2024/04/18 06:33:04;;;;;;;1.58;0.85;;;14.40;84.40;;;;;;5202724;27;20008;-84
2024/04/18 06:35:30;;;;;;;1.50;1.00;;;14.40;84.30;;;;;;5207022;27;20018;-85
2024/04/18 06:38:16;;;;;;;2.03;1.00;;;14.30;84.30;;;;;;5177916;27;20299;-86
2024/04/18 06:40:42;;;;;;;2.70;1.10;;;14.30;84.20;;;;;;5172037;27;20052;-84
2024/04/18 06:43:07;;;;;;;2.13;1.10;;;14.40;84.10;;;;;;5145402;27;20001;-84
2024/04/18 06:45:34;;;;;;;2.85;1.00;;;14.50;84.10;;;;;;5118876;27;20378;-83
2024/04/18 06:47:59;;;;;;;1.27;0.80;;;14.50;83.90;;;;;;5142301;27;20517;-84
2024/04/18 06:50:26;;;;;;;1.10;0.85;;;14.50;83.70;;;;;;5169007;27;20007;-87
2024/04/18 06:52:52;;;;;;;1.13;0.98;;;14.40;83.60;;;;;;5173454;27;20073;-85
2024/04/18 06:55:18;;;;;;;1.48;1.10;;;14.60;83.70;;;;;;5163476;27;20012;-87
2024/04/18 06:57:44;;;;;;;2.97;1.10;;;14.60;83.60;;;;;;5219773;27;20015;-85
2024/04/18 07:00:10;;;;;;;2.70;1.10;;;14.60;83.20;;;;;;5233202;27;20052;-85
2024/04/18 07:02:39;;;;;;;2.92;1.35;;;14.60;83.10;;;;;;5209005;27;20023;-86
2024/04/18 07:18:34;;;;;;;3.95;1.27;;;14.70;82.60;;;;;;5176782;27;20049;-84
2024/04/18 07:21:10;;;;;;;3.42;1.30;;;14.80;82.60;;;;;;5119510;27;20656;-83
2024/04/18 07:23:38;;;;;;;2.55;1.30;;;14.80;82.50;;;;;;5180292;27;20011;-85
2024/04/18 07:26:13;;;;;;;2.85;1.40;;;14.80;82.40;;;;;;5179430;27;20001;-84
2024/04/18 07:32:10;;;;;;;2.63;1.10;;;14.80;82.50;;;;;;5148219;27;20072;-81
2024/04/18 07:37:28;;;;;;;2.95;1.20;;;14.90;82.50;;;;;;5236415;22;20014;-81
2024/04/18 07:40:12;;;;;;;2.60;1.27;;;14.80;82.40;;;;;;5212290;27;19999;-84
2024/04/18 07:45:47;;;;;;;2.90;1.25;;;14.80;82.30;;;;;;5148622;27;20559;-82
2024/04/18 07:48:24;;;;;;;4.15;1.60;;;14.90;82.30;;;;;;5210288;27;20079;-83
2024/04/18 07:54:51;;;;;;;3.72;1.40;;;14.90;82.20;;;;;;5143041;27;20012;-84
2024/04/18 07:57:48;;;;;;;3.47;1.25;;;14.80;82.10;;;;;;5114892;27;20009;-83
2024/04/18 08:04:20;;;;;;;3.03;1.38;;;15.00;82.10;;;;;;5016221;28;20011;-85
2024/04/18 08:06:46;;;;;;;3.65;1.45;;;15.10;82.10;;;;;;5304883;22;20019;-83
2024/04/18 08:09:15;;;;;;;4.05;1.40;;;15.10;82.00;;;;;;5157736;27;20019;-83
2024/04/18 08:11:46;;;;;;;3.00;0.98;;;15.10;82.00;;;;;;5184619;27;20000;-81
2024/04/18 08:15:06;;;;;;;3.70;1.20;;;15.20;81.90;;;;;;5184740;27;20075;-85
2024/04/18 08:21:13;;;;;;;3.30;1.20;;;15.10;82.00;;;;;;5182021;27;20007;-83
2024/04/18 08:23:39;;;;;;;2.50;1.30;;;15.10;82.20;;;;;;5132107;27;20000;-87
2024/04/18 08:26:05;;;;;;;2.92;1.27;;;15.00;82.20;;;;;;5149083;27;20053;-90
2024/04/18 08:28:30;;;;;;;4.88;1.38;;;15.00;82.30;;;;;;5175658;27;20002;-87
2024/04/18 08:30:56;;;;;;;3.30;1.10;;;14.90;82.40;;;;;;5177227;27;20071;-85
2024/04/18 08:33:22;;;;;;;3.72;1.10;;;14.90;82.50;;;;;;5176086;27;20473;-82
2024/04/18 08:35:47;;;;;;;4.60;1.40;;;14.90;82.60;;;;;;5175869;27;19996;-84
2024/04/18 08:38:13;;;;;;;3.45;1.33;;;14.90;82.70;;;;;;5174669;27;20072;-85
2024/04/18 08:40:44;;;;;;;2.63;1.23;;;14.90;82.80;;;;;;5145211;27;19997;-83
2024/04/18 08:43:11;;;;;;;6.20;1.65;;;14.90;82.90;;;;;;5172869;27;20024;-84
2024/04/18 08:45:40;;;;;;;4.38;1.30;;;14.80;82.90;;;;;;5174044;27;19997;-84
2024/04/18 08:48:06;;;;;;;5.07;1.23;;;14.80;83.00;;;;;;5145573;27;20011;-85
2024/04/18 08:50:33;;;;;;;4.53;1.23;;;14.80;83.00;;;;;;5174262;27;20323;-84
2024/04/18 08:52:59;;;;;;;4.60;1.38;;;14.80;83.10;;;;;;5145301;27;20001;-84
2024/04/18 08:55:26;;;;;;;4.20;1.48;;;14.80;83.10;;;;;;5173743;27;19996;-83
2024/04/18 08:58:04;;;;;;;6.93;1.80;;;14.80;83.20;;;;;;5173977;27;20008;-85
2024/04/18 09:00:29;;;;;;;3.65;1.27;;;14.80;83.30;;;;;;5173861;27;20012;-84
2024/04/18 09:02:55;;;;;;;4.28;1.40;;;14.70;83.20;;;;;;5174381;27;20004;-84
2024/04/18 09:05:21;;;;;;;3.35;1.48;;;14.70;83.20;;;;;;5173612;27;20004;-84
2024/04/18 09:07:47;;;;;;;2.30;1.20;;;14.80;83.40;;;;;;5145133;27;20016;-84
2024/04/18 09:10:13;;;;;;;3.28;1.33;;;14.80;83.40;;;;;;5144923;27;20083;-84
2024/04/18 09:12:39;;;;;;;3.05;1.40;;;14.80;83.40;;;;;;5145338;27;20011;-84
2024/04/18 09:15:05;;;;;;;4.53;1.50;;;14.80;83.30;;;;;;5172273;27;20000;-83
2024/04/18 09:17:30;;;;;;;6.32;1.50;;;14.70;83.30;;;;;;5174234;27;20011;-84
2024/04/18 09:19:56;;;;;;;3.67;1.33;;;14.70;83.30;;;;;;5145105;27;20001;-83
2024/04/18 09:22:21;;;;;;;3.40;1.30;;;14.70;83.30;;;;;;5145599;27;20274;-85
2024/04/18 09:24:47;;;;;;;2.83;1.17;;;14.70;83.30;;;;;;5145337;27;20028;-84
2024/04/18 09:27:14;;;;;;;2.63;1.20;;;14.70;83.30;;;;;;5144992;27;20517;-85
2024/04/18 09:29:46;;;;;;;3.90;1.20;;;14.80;83.30;;;;;;5173436;27;20012;-84
2024/04/18 09:32:14;;;;;;;3.05;1.27;;;14.80;83.20;;;;;;5173710;27;20012;-85
2024/04/18 09:34:47;;;;;;;4.35;1.23;;;14.80;83.10;;;;;;5173510;27;20000;-84
2024/04/18 09:37:15;;;;;;;3.53;1.30;;;14.80;83.10;;;;;;5171837;27;20016;-84
2024/04/18 09:39:43;;;;;;;4.28;1.25;;;14.80;82.90;;;;;;5144489;27;20000;-84
2024/04/18 09:42:48;;;;;;;2.88;1.17;;;14.90;82.80;;;;;;5176153;27;20000;-86
2024/04/18 09:45:19;;;;;;;3.63;1.20;;;14.90;82.60;;;;;;5173527;27;20036;-83
2024/04/18 09:47:47;;;;;;;3.88;1.30;;;15.00;82.60;;;;;;5148200;27;19997;-84
2024/04/18 09:50:13;;;;;;;2.33;1.00;;;15.00;82.40;;;;;;5176229;27;20008;-84
2024/04/18 09:52:40;;;;;;;2.92;1.10;;;15.00;82.30;;;;;;5148323;27;20587;-84
2024/04/18 09:55:08;;;;;;;2.50;1.20;;;15.00;82.40;;;;;;5174904;27;19996;-86
2024/04/18 09:57:35;;;;;;;3.38;1.00;;;15.00;82.40;;;;;;5176733;27;20084;-84
2024/04/18 10:00:02;;;;;;;3.42;1.20;;;15.00;82.60;;;;;;5176320;27;20008;-84
2024/04/18 10:02:29;;;;;;;1.77;1.20;;;14.90;82.60;;;;;;5174811;27;19996;-84
2024/04/18 10:04:55;;;;;;;3.90;1.40;;;14.90;82.80;;;;;;5174853;27;20075;-84
2024/04/18 10:07:23;;;;;;;3.25;1.10;;;14.80;82.90;;;;;;5176488;27;20008;-83
2024/04/18 10:09:50;;;;;;;2.97;1.20;;;14.90;83.00;;;;;;5176174;27;20011;-84
2024/04/18 10:12:18;;;;;;;2.17;1.08;;;14.90;83.10;;;;;;5148075;27;20488;-84
2024/04/18 10:14:44;;;;;;;3.22;1.20;;;14.80;83.10;;;;;;5147945;27;20364;-84
2024/04/18 10:17:31;;;;;;;2.47;1.20;;;14.80;83.20;;;;;;5176594;27;20000;-84
2024/04/18 10:20:02;;;;;;;3.13;1.20;;;14.80;83.20;;;;;;5174513;27;20542;-85
2024/04/18 10:22:31;;;;;;;2.05;1.00;;;14.80;83.20;;;;;;5174770;27;20000;-84
2024/04/18 10:24:56;;;;;;;2.95;1.17;;;14.80;83.20;;;;;;5176218;27;20004;-84
2024/04/18 10:27:23;;;;;;;1.95;1.00;;;14.80;83.20;;;;;;5175990;27;20011;-83
2024/04/18 10:29:57;;;;;;;2.75;1.13;;;14.90;83.30;;;;;;5175419;27;20025;-85
2024/04/18 10:32:31;;;;;;;3.63;1.15;;;14.80;83.20;;;;;;5121067;27;20071;-84
2024/04/18 10:34:58;;;;;;;3.78;1.40;;;14.80;83.20;;;;;;5175843;27;20000;-84
2024/04/18 10:37:24;;;;;;;3.13;1.27;;;14.80;83.20;;;;;;5176075;27;20537;-84
2024/04/18 10:39:53;;;;;;;2.45;1.20;;;14.70;83.10;;;;;;5147415;27;20008;-84
2024/04/18 10:42:22;;;;;;;2.75;1.00;;;14.80;83.20;;;;;;5176642;27;20019;-85
2024/04/18 10:44:49;;;;;;;4.00;1.10;;;14.80;83.20;;;;;;5175948;27;20562;-84
2024/04/18 10:47:18;;;;;;;2.60;1.10;;;14.80;83.20;;;;;;5175860;27;20008;-85
2024/04/18 10:49:45;;;;;;;2.88;1.30;;;14.70;83.10;;;;;;5175398;27;20020;-84
2024/04/18 10:52:15;;;;;;;2.83;1.00;;;14.80;83.00;;;;;;5175378;27;20012;-85
2024/04/18 10:54:41;;;;;;;2.23;1.00;;;14.80;82.80;;;;;;5175789;27;20004;-84
2024/04/18 10:57:08;;;;;;;3.35;1.30;;;14.90;82.60;;;;;;5147490;27;20015;-84
2024/04/18 10:59:38;;;;;;;1.20;0.88;;;15.00;82.50;;;;;;5175796;27;20000;-84
2024/04/18 11:02:05;;;;;;;2.33;0.82;;;15.10;82.40;;;;;;5175930;27;20033;-84
2024/04/18 11:04:31;;;;;;;2.47;1.10;;;15.10;82.40;;;;;;5175640;27;20000;-84
2024/04/18 11:06:56;;;;;;;2.53;0.95;;;15.00;82.30;;;;;;5175371;27;20011;-84
2024/04/18 11:09:22;;;;;;;2.25;1.15;;;14.90;82.30;;;;;;5175659;27;20016;-83
2024/04/18 11:11:49;;;;;;;3.17;1.20;;;15.00;82.50;;;;;;5175630;27;20011;-85
2024/04/18 11:14:16;;;;;;;2.97;1.00;;;14.90;82.50;;;;;;5175380;27;20102;-83
2024/04/18 11:16:41;;;;;;;3.33;1.00;;;14.80;82.60;;;;;;5175460;27;20005;-85
2024/04/18 11:19:08;;;;;;;1.85;1.00;;;14.90;82.80;;;;;;5175406;27;20011;-83
2024/04/18 11:21:34;;;;;;;2.65;1.02;;;14.90;82.90;;;;;;5146589;27;20001;-84
2024/04/18 11:24:00;;;;;;;3.45;1.15;;;14.90;82.90;;;;;;5175270;27;20015;-84
2024/04/18 11:26:26;;;;;;;3.45;1.15;;;14.90;83.00;;;;;;5175384;27;20016;-82
2024/04/18 11:28:54;;;;;;;2.08;1.10;;;14.80;83.00;;;;;;5175446;27;20016;-84
2024/04/18 11:31:20;;;;;;;2.55;1.10;;;14.90;83.10;;;;;;5174695;27;20084;-85
2024/04/18 11:33:46;;;;;;;2.50;1.10;;;14.90;83.10;;;;;;5175425;27;20454;-83
2024/04/18 11:36:14;;;;;;;1.67;0.95;;;14.80;83.10;;;;;;5175573;27;20004;-84
2024/04/18 11:38:40;;;;;;;2.00;0.98;;;14.90;83.20;;;;;;5173459;27;20044;-84
2024/04/18 11:41:06;;;;;;;3.17;0.90;;;14.70;83.00;;;;;;5174727;27;20000;-84
2024/04/18 11:43:31;;;;;;;1.30;0.80;;;14.80;83.10;;;;;;5175291;27;20109;-83
2024/04/18 11:45:57;;;;;;;3.13;1.05;;;14.80;83.10;;;;;;5146687;27;20015;-82
2024/04/18 11:48:23;;;;;;;1.58;0.85;;;14.80;83.00;;;;;;5175492;27;20023;-81
2024/04/18 11:50:48;;;;;;;1.73;0.85;;;14.80;83.00;;;;;;5173326;27;20552;-84
2024/04/18 11:53:14;;;;;;;2.17;0.90;;;14.90;82.90;;;;;;5119597;27;20086;-83
2024/04/18 11:55:40;;;;;;;2.42;0.90;;;14.90;82.80;;;;;;5175077;27;20016;-84
2024/04/18 11:58:05;;;;;;;2.35;0.90;;;15.00;82.70;;;;;;5175338;27;20000;-83
2024/04/18 12:00:32;;;;;;;1.10;0.70;;;15.00;83.20;;;;;;5146276;27;20004;-82
2024/04/18 12:03:01;;;;;;;3.33;1.08;;;15.00;82.60;;;;;;5174223;27;20071;-83
2024/04/18 12:05:27;;;;;;;2.30;1.08;;;15.00;82.60;;;;;;5174372;27;20080;-83
2024/04/18 12:07:53;;;;;;;2.85;1.10;;;15.00;82.70;;;;;;5146408;27;20411;-83
2024/04/18 12:10:19;;;;;;;1.35;0.80;;;14.90;82.60;;;;;;5172963;27;20000;-84
2024/04/18 12:12:44;;;;;;;2.35;1.00;;;15.00;82.70;;;;;;5173127;27;20465;-82
2024/04/18 12:15:10;;;;;;;2.42;0.77;;;15.00;82.60;;;;;;5146005;27;20004;-82
2024/04/18 12:17:36;;;;;;;2.97;1.10;;;15.00;82.50;;;;;;5145855;27;20012;-84
2024/04/18 12:20:02;;;;;;;2.40;1.10;;;15.10;82.50;;;;;;5145670;27;20016;-81
2024/04/18 12:22:28;;;;;;;2.35;0.93;;;15.00;82.20;;;;;;5174917;27;20414;-81
2024/04/18 12:24:54;;;;;;;1.38;0.80;;;15.10;82.20;;;;;;5174961;27;20012;-82
2024/04/18 12:27:20;;;;;;;2.70;1.00;;;15.10;82.10;;;;;;5145923;27;20000;-82
2024/04/18 12:29:47;;;;;;;1.55;0.70;;;15.10;82.10;;;;;;5145418;27;20584;-84
2024/04/18 12:32:16;;;;;;;1.85;0.93;;;15.10;82.10;;;;;;5174425;27;20004;-82
2024/04/18 12:34:42;;;;;;;2.15;0.90;;;15.10;82.10;;;;;;5145840;27;20048;-85
2024/04/18 12:37:08;;;;;;;2.15;1.00;;;15.20;82.10;;;;;;5145947;27;20020;-85
2024/04/18 12:39:33;;;;;;;2.08;0.82;;;15.10;82.10;;;;;;5172709;27;20076;-85
2024/04/18 12:41:59;;;;;;;1.35;0.80;;;15.20;82.20;;;;;;5146191;27;20351;-87
2024/04/18 12:44:24;;;;;;;2.22;0.80;;;15.10;82.20;;;;;;5174580;27;20410;-85
2024/04/18 12:46:50;;;;;;;1.58;0.88;;;15.10;82.20;;;;;;5174426;27;20016;-87
2024/04/18 12:49:15;;;;;;;1.92;0.90;;;15.10;82.30;;;;;;5118726;27;20012;-86
2024/04/18 12:51:41;;;;;;;1.60;0.75;;;15.10;82.40;;;;;;5174012;27;20512;-86
2024/04/18 12:54:06;;;;;;;1.77;0.80;;;15.00;82.40;;;;;;5145528;27;20574;-86
2024/04/18 12:56:32;;;;;;;3.25;0.80;;;15.10;82.50;;;;;;5145344;27;20016;-85
2024/04/18 12:58:58;;;;;;;1.85;0.90;;;15.00;82.60;;;;;;5174103;27;20007;-85
2024/04/18 13:01:23;;;;;;;2.20;1.00;;;15.10;82.70;;;;;;5174100;27;20001;-86
2024/04/18 13:03:49;;;;;;;1.20;0.63;;;15.00;82.60;;;;;;5145757;27;20008;-86
2024/04/18 13:06:15;;;;;;;1.58;0.88;;;15.00;82.70;;;;;;5145230;27;20004;-85
2024/04/18 13:08:40;;;;;;;2.13;0.80;;;15.00;82.70;;;;;;5173809;27;20011;-85
2024/04/18 13:11:06;;;;;;;1.02;0.70;;;15.00;82.70;;;;;;5172028;27;19996;-86
2024/04/18 13:13:31;;;;;;;1.30;0.73;;;15.00;82.60;;;;;;5145491;27;20017;-86
2024/04/18 13:15:57;;;;;;;1.85;0.70;;;15.10;82.60;;;;;;5147307;27;20503;-85
2024/04/18 13:18:23;;;;;;;1.80;0.90;;;15.00;82.50;;;;;;5175608;27;20007;-86
2024/04/18 13:20:48;;;;;;;1.42;0.68;;;15.10;82.60;;;;;;5147950;27;20012;-85
2024/04/18 13:23:14;;;;;;;1.75;0.70;;;15.00;82.50;;;;;;5177451;27;20011;-85